createdAt,value
2017-11-04T00:00:47.401Z,25.73
2017-11-04T00:03:13.811Z,24.37
2017-11-04T00:05:40.063Z,28.73
2017-11-04T00:08:06.285Z,26.57
2017-11-04T00:10:32.630Z,25.10
2017-11-04T00:12:58.905Z,24.53
2017-11-04T00:15:25.157Z,25.93
2017-11-04T00:17:51.426Z,22.93
2017-11-04T00:20:17.707Z,29.33
2017-11-04T00:22:43.951Z,30.07
2017-11-04T00:25:10.196Z,31.07
2017-11-04T00:27:36.535Z,30.93
2017-11-04T00:30:02.765Z,27.07
2017-11-04T00:32:28.997Z,26.90
2017-11-04T00:34:55.280Z,28.57
2017-11-04T00:37:21.491Z,27.87
2017-11-04T00:39:47.719Z,26.57
2017-11-04T00:42:13.969Z,29.67
2017-11-04T00:44:40.212Z,28.20
2017-11-04T00:47:06.412Z,28.27
2017-11-04T00:49:32.675Z,28.10
2017-11-04T00:51:58.909Z,26.87
2017-11-04T00:54:25.144Z,27.17
2017-11-04T00:56:51.428Z,28.50
2017-11-04T00:59:17.668Z,26.90
2017-11-04T01:01:43.911Z,23.80
2017-11-04T01:04:10.179Z,24.83
2017-11-04T01:06:36.415Z,22.50
2017-11-04T01:09:02.630Z,25.00
2017-11-04T01:11:28.915Z,24.73
2017-11-04T01:13:55.147Z,26.13
2017-11-04T01:16:21.383Z,29.77
2017-11-04T01:18:47.651Z,28.60
2017-11-04T01:21:13.870Z,28.90
2017-11-04T01:23:40.082Z,29.43
2017-11-04T01:26:06.334Z,25.70
2017-11-04T01:28:32.560Z,25.17
2017-11-04T01:30:58.770Z,25.20
2017-11-04T01:33:25.055Z,25.40
2017-11-04T01:35:51.293Z,25.00
2017-11-04T01:38:17.647Z,28.83
2017-11-04T01:40:43.890Z,28.37
2017-11-04T01:43:10.120Z,29.77
2017-11-04T01:45:36.355Z,30.90
2017-11-04T01:48:02.673Z,27.90
2017-11-04T01:50:28.894Z,30.53
2017-11-04T01:52:55.145Z,28.77
2017-11-04T01:55:21.414Z,31.43
2017-11-04T01:57:47.647Z,31.47
2017-11-04T02:00:13.874Z,29.90
2017-11-04T02:02:40.161Z,29.70
2017-11-04T02:05:06.387Z,29.00
2017-11-04T02:07:32.608Z,26.53
2017-11-04T02:09:58.878Z,27.73
2017-11-04T02:12:25.132Z,28.83
2017-11-04T02:14:51.360Z,28.10
2017-11-04T02:17:17.618Z,22.87
2017-11-04T02:19:43.834Z,28.23
2017-11-04T02:22:10.059Z,26.73
2017-11-04T02:24:36.330Z,25.33
2017-11-04T02:27:02.557Z,25.57
2017-11-04T02:29:28.775Z,28.77
2017-11-04T02:31:55.034Z,26.77
2017-11-04T02:34:21.253Z,28.00
2017-11-04T02:36:47.473Z,30.37
2017-11-04T02:39:13.766Z,27.47
2017-11-04T02:41:39.999Z,33.90
2017-11-04T02:44:06.237Z,31.47
2017-11-04T02:46:32.519Z,31.83
2017-11-04T02:48:58.744Z,28.80
2017-11-04T02:51:24.979Z,32.70
2017-11-04T02:53:51.238Z,30.33
2017-11-04T02:56:17.486Z,33.63
2017-11-04T02:58:43.728Z,32.07
2017-11-04T03:01:09.985Z,30.40
2017-11-04T03:03:36.221Z,31.23
2017-11-04T03:06:02.456Z,25.20
2017-11-04T03:08:28.718Z,27.93
2017-11-04T03:10:54.963Z,26.90
2017-11-04T03:13:21.189Z,23.10
2017-11-04T03:15:47.457Z,27.23
2017-11-04T03:18:13.677Z,26.10
2017-11-04T03:20:39.903Z,25.70
2017-11-04T03:23:06.157Z,23.80
2017-11-04T03:25:32.388Z,23.03
2017-11-04T03:27:58.606Z,24.57
2017-11-04T03:30:24.876Z,25.97
2017-11-04T03:32:51.089Z,26.40
2017-11-04T03:35:17.319Z,26.60
2017-11-04T03:37:43.653Z,25.60
2017-11-04T03:40:09.882Z,26.07
2017-11-04T03:42:36.126Z,24.17
2017-11-04T03:45:02.370Z,24.03
2017-11-04T03:47:28.600Z,25.40
2017-11-04T03:49:54.836Z,25.43
2017-11-04T03:52:21.098Z,24.70
2017-11-04T03:54:47.328Z,27.23
2017-11-04T03:57:13.563Z,26.40
2017-11-04T03:59:39.834Z,24.77
2017-11-04T04:02:06.050Z,21.47
2017-11-04T04:04:32.271Z,23.23
2017-11-04T04:06:58.527Z,25.57
2017-11-04T04:09:24.750Z,26.47
2017-11-04T04:11:50.979Z,29.53
2017-11-04T04:14:17.249Z,22.63
2017-11-04T04:16:43.471Z,29.07
2017-11-04T04:19:09.695Z,29.67
2017-11-04T04:21:35.971Z,28.13
2017-11-04T04:24:02.190Z,29.10
2017-11-04T04:26:28.425Z,27.70
2017-11-04T04:28:54.705Z,29.97
2017-11-04T04:31:20.945Z,25.80
2017-11-04T04:33:47.183Z,23.67
2017-11-04T04:36:13.448Z,26.10
2017-11-04T04:38:39.671Z,22.33
2017-11-04T04:41:05.906Z,24.90
2017-11-04T04:43:32.156Z,25.07
2017-11-04T04:45:58.379Z,24.40
2017-11-04T04:48:24.619Z,23.40
2017-11-04T04:50:50.890Z,24.10
2017-11-04T04:53:17.125Z,22.37
2017-11-04T04:55:43.363Z,28.40
2017-11-04T04:58:09.636Z,21.27
2017-11-04T05:00:35.858Z,23.93
2017-11-04T05:03:02.088Z,23.37
2017-11-04T05:05:28.358Z,22.60
2017-11-04T05:07:54.591Z,21.30
2017-11-04T05:10:20.820Z,23.70
2017-11-04T05:12:47.100Z,22.20
2017-11-04T05:15:13.336Z,22.90
2017-11-04T05:17:39.574Z,21.40
2017-11-04T05:20:05.830Z,22.30
2017-11-04T05:22:32.060Z,21.50
2017-11-04T05:24:58.288Z,21.80
2017-11-04T05:27:24.561Z,23.67
2017-11-04T05:29:50.796Z,21.43
2017-11-04T05:32:17.026Z,20.53
2017-11-04T05:34:43.282Z,20.73
2017-11-04T05:37:09.491Z,21.80
2017-11-04T05:39:35.710Z,21.00
2017-11-04T05:42:01.988Z,24.70
2017-11-04T05:44:28.215Z,27.33
2017-11-04T05:46:54.438Z,20.73
2017-11-04T05:49:20.701Z,21.30
2017-11-04T05:51:46.928Z,20.70
2017-11-04T05:54:13.137Z,21.80
2017-11-04T05:56:39.399Z,20.27
2017-11-04T05:59:05.640Z,26.70
2017-11-04T06:01:31.867Z,24.60
2017-11-04T06:03:58.140Z,27.43
2017-11-04T06:06:24.373Z,28.90
2017-11-04T06:08:50.629Z,29.37
2017-11-04T06:11:16.920Z,26.00
2017-11-04T06:13:43.155Z,27.47
2017-11-04T06:16:09.364Z,27.90
2017-11-04T06:18:35.624Z,28.60
2017-11-04T06:21:01.874Z,30.07
2017-11-04T06:23:28.112Z,27.50
2017-11-04T06:25:54.362Z,28.80
2017-11-04T06:28:20.793Z,28.97
2017-11-04T06:30:47.014Z,25.13
2017-11-04T06:33:13.289Z,30.20
2017-11-04T06:35:39.502Z,26.50
2017-11-04T06:38:05.732Z,26.27
2017-11-04T06:40:31.991Z,27.13
2017-11-04T06:42:58.231Z,32.37
2017-11-04T06:45:24.469Z,28.60
2017-11-04T06:47:50.739Z,27.00
2017-11-04T06:50:17.073Z,31.33
2017-11-04T06:52:43.317Z,31.12
2017-11-04T06:55:09.603Z,28.30
2017-11-04T06:57:35.833Z,29.10
2017-11-04T07:00:02.068Z,27.97
2017-11-04T07:02:28.342Z,26.60
2017-11-04T07:04:54.561Z,28.70
2017-11-04T07:07:20.801Z,26.30
2017-11-04T07:09:47.087Z,30.13
2017-11-04T07:12:13.321Z,27.80
2017-11-04T07:14:39.566Z,33.13
2017-11-04T07:17:05.845Z,30.80
2017-11-04T07:19:32.082Z,33.13
2017-11-04T07:21:58.318Z,36.07
2017-11-04T07:24:24.607Z,32.37
2017-11-04T07:26:50.868Z,32.10
2017-11-04T07:29:17.108Z,32.13
2017-11-04T07:31:43.383Z,35.33
2017-11-04T07:34:09.605Z,38.07
2017-11-04T07:36:35.836Z,42.80
2017-11-04T07:39:02.119Z,40.90
2017-11-04T07:41:28.484Z,40.57
2017-11-04T07:43:54.725Z,34.97
2017-11-04T07:46:20.980Z,32.57
2017-11-04T07:48:47.226Z,33.47
2017-11-04T07:51:13.472Z,34.07
2017-11-04T07:53:39.747Z,34.17
2017-11-04T07:56:05.965Z,35.00
2017-11-04T07:58:32.194Z,38.80
2017-11-04T08:00:58.463Z,38.30
2017-11-04T08:03:24.704Z,40.37
2017-11-04T08:05:50.945Z,37.10
2017-11-04T08:08:17.218Z,32.20
2017-11-04T08:10:43.454Z,40.87
2017-11-04T08:13:09.687Z,39.27
2017-11-04T08:15:35.965Z,40.90
2017-11-04T08:18:02.194Z,40.23
2017-11-04T08:20:28.458Z,35.87
2017-11-04T08:22:54.730Z,40.73
2017-11-04T08:25:20.968Z,41.37
2017-11-04T08:27:47.211Z,45.23
2017-11-04T08:30:13.495Z,43.83
2017-11-04T08:32:39.720Z,42.27
2017-11-04T08:35:05.939Z,38.03
2017-11-04T08:37:32.255Z,38.60
2017-11-04T08:39:58.493Z,40.10
2017-11-04T08:42:24.727Z,41.77
2017-11-04T08:44:51.000Z,39.40
2017-11-04T08:47:17.233Z,40.40
2017-11-04T08:49:43.475Z,42.37
2017-11-04T08:52:09.751Z,44.67
2017-11-04T08:54:36.014Z,46.50
2017-11-04T08:57:02.251Z,46.67
2017-11-04T08:59:28.524Z,45.30
2017-11-04T09:01:54.748Z,43.10
2017-11-04T09:04:20.989Z,53.00
2017-11-04T09:06:47.252Z,44.43
2017-11-04T09:09:13.484Z,46.10
2017-11-04T09:11:39.730Z,43.87
2017-11-04T09:14:06.000Z,47.57
2017-11-04T09:16:32.234Z,46.27
2017-11-04T09:18:58.473Z,47.80
2017-11-04T09:21:24.888Z,47.20
2017-11-04T09:23:51.116Z,49.03
2017-11-04T09:26:17.371Z,48.93
2017-11-04T09:28:43.644Z,52.40
2017-11-04T09:31:09.885Z,50.33
2017-11-04T09:33:36.134Z,57.47
2017-11-04T09:36:02.440Z,52.70
2017-11-04T09:38:28.710Z,53.70
2017-11-04T09:40:54.971Z,51.20
2017-11-04T09:43:21.231Z,48.73
2017-11-04T09:45:47.483Z,50.30
2017-11-04T09:48:13.701Z,47.40
2017-11-04T09:50:39.996Z,48.40
2017-11-04T09:53:06.218Z,46.30
2017-11-04T09:55:32.435Z,39.83
2017-11-04T09:57:58.698Z,40.93
2017-11-04T10:00:24.922Z,47.10
2017-11-04T10:02:51.151Z,43.10
2017-11-04T10:05:17.426Z,43.60
2017-11-04T10:07:43.644Z,43.40
2017-11-04T10:10:09.887Z,40.70
2017-11-04T10:12:36.157Z,40.43
2017-11-04T10:15:02.416Z,42.37
2017-11-04T10:17:28.710Z,36.83
2017-11-04T10:19:54.996Z,41.47
2017-11-04T10:22:21.232Z,40.30
2017-11-04T10:24:47.461Z,39.47
2017-11-04T10:27:13.725Z,39.30
2017-11-04T10:29:40.094Z,40.00
2017-11-04T10:32:06.332Z,38.13
2017-11-04T10:34:32.650Z,38.90
2017-11-04T10:36:58.870Z,46.53
2017-11-04T10:39:25.091Z,51.33
2017-11-04T10:41:51.384Z,36.23
2017-11-04T10:44:17.607Z,37.73
2017-11-04T10:46:43.914Z,37.47
2017-11-04T10:49:10.179Z,35.47
2017-11-04T10:51:36.416Z,33.50
2017-11-04T10:54:02.639Z,30.90
2017-11-04T10:56:29.219Z,33.40
2017-11-04T10:58:55.634Z,33.30
2017-11-04T11:01:21.925Z,39.13
2017-11-04T11:03:48.517Z,34.30
2017-11-04T11:06:14.937Z,32.73
2017-11-04T11:08:41.203Z,36.57
2017-11-04T11:11:07.818Z,31.33
2017-11-04T11:13:34.269Z,41.30
2017-11-04T11:16:00.495Z,34.60
2017-11-04T11:18:27.119Z,31.97
2017-11-04T11:20:53.564Z,33.30
2017-11-04T11:23:19.804Z,32.57
2017-11-04T11:25:46.070Z,32.33
2017-11-04T11:28:12.292Z,28.80
2017-11-04T11:30:38.529Z,32.40
2017-11-04T11:33:04.787Z,32.20
2017-11-04T11:35:31.022Z,29.43
2017-11-04T11:37:57.238Z,26.30
2017-11-04T11:40:23.501Z,30.33
2017-11-04T11:42:49.708Z,26.77
2017-11-04T11:45:16.060Z,24.37
2017-11-04T11:47:42.331Z,27.27
2017-11-04T11:50:08.578Z,24.20
2017-11-04T11:52:34.799Z,29.73
2017-11-04T11:55:01.177Z,28.63
2017-11-04T11:57:27.418Z,25.90
2017-11-04T11:59:53.670Z,28.87
2017-11-04T12:02:19.936Z,29.53
2017-11-04T12:04:46.171Z,33.23
2017-11-04T12:07:12.410Z,25.47
2017-11-04T12:09:38.684Z,20.93
2017-11-04T12:12:04.924Z,23.40
2017-11-04T12:14:31.148Z,22.70
2017-11-04T12:16:57.443Z,24.83
2017-11-04T12:19:23.678Z,22.30
2017-11-04T12:21:49.908Z,21.10
2017-11-04T12:24:16.189Z,16.93
2017-11-04T12:26:42.418Z,24.40
2017-11-04T12:29:08.799Z,19.83
2017-11-04T12:31:35.088Z,18.90
2017-11-04T12:34:01.335Z,18.00
2017-11-04T12:36:27.584Z,18.10
2017-11-04T12:38:53.871Z,17.97
2017-11-04T12:41:20.103Z,16.63
2017-11-04T12:43:46.352Z,16.47
2017-11-04T12:46:12.640Z,18.07
2017-11-04T12:48:38.899Z,15.17
2017-11-04T12:51:05.134Z,15.97
2017-11-04T12:53:31.429Z,17.53
2017-11-04T12:55:57.917Z,17.60
2017-11-04T12:58:24.443Z,18.33
2017-11-04T13:00:50.936Z,27.43
2017-11-04T13:03:17.278Z,29.57
2017-11-04T13:05:43.512Z,26.07
2017-11-04T13:08:09.779Z,29.37
2017-11-04T13:10:36.005Z,29.20
2017-11-04T13:13:02.240Z,27.63
2017-11-04T13:15:28.529Z,27.60
2017-11-04T13:17:54.766Z,23.83
2017-11-04T13:20:21.022Z,38.93
2017-11-04T13:22:47.309Z,28.17
2017-11-04T13:25:13.557Z,19.87
2017-11-04T13:27:39.809Z,16.90
2017-11-04T13:30:06.101Z,17.80
2017-11-04T13:32:32.339Z,18.30
2017-11-04T13:34:58.586Z,19.80
2017-11-04T13:37:24.850Z,21.27
2017-11-04T13:39:51.079Z,22.00
2017-11-04T13:42:17.486Z,20.40
2017-11-04T13:44:43.744Z,18.90
2017-11-04T13:47:09.972Z,17.40
2017-11-04T13:49:36.200Z,20.60
2017-11-04T13:52:02.466Z,24.57
2017-11-04T13:54:28.684Z,24.10
2017-11-04T13:56:54.917Z,28.90
2017-11-04T13:59:21.211Z,33.57
2017-11-04T14:01:47.444Z,37.00
2017-11-04T14:04:13.681Z,34.53
2017-11-04T14:06:39.941Z,56.93
2017-11-04T14:09:06.151Z,44.63
2017-11-04T14:11:32.383Z,51.20
2017-11-04T14:13:58.644Z,39.30
2017-11-04T14:16:25.091Z,37.20
2017-11-04T14:18:51.306Z,38.67
2017-11-04T14:21:17.587Z,40.93
2017-11-04T14:23:43.808Z,44.27
2017-11-04T14:26:10.028Z,38.47
2017-11-04T14:28:36.306Z,40.93
2017-11-04T14:31:02.553Z,40.67
2017-11-04T14:33:28.776Z,38.50
2017-11-04T14:35:55.034Z,36.80
2017-11-04T14:38:21.260Z,36.07
2017-11-04T14:40:47.493Z,38.20
2017-11-04T14:43:13.748Z,40.97
2017-11-04T14:45:39.974Z,36.80
2017-11-04T14:48:06.205Z,34.57
2017-11-04T14:50:32.477Z,32.93
2017-11-04T14:52:58.701Z,38.00
2017-11-04T14:55:24.936Z,34.33
2017-11-04T14:57:51.226Z,38.10
2017-11-04T15:00:17.474Z,35.03
2017-11-04T15:02:43.710Z,38.03
2017-11-04T15:05:09.988Z,38.50
2017-11-04T15:07:36.212Z,40.33
2017-11-04T15:10:02.438Z,33.73
2017-11-04T15:12:28.736Z,42.00
2017-11-04T15:14:54.973Z,41.67
2017-11-04T15:17:21.220Z,35.50
2017-11-04T15:19:47.487Z,33.90
2017-11-04T15:22:13.705Z,31.17
2017-11-04T15:24:39.925Z,37.43
2017-11-04T15:27:06.194Z,36.03
2017-11-04T15:29:32.428Z,37.40
2017-11-04T15:31:58.663Z,36.00
2017-11-04T15:34:24.948Z,35.33
2017-11-04T15:36:51.178Z,37.70
2017-11-04T15:39:17.427Z,34.33
2017-11-04T15:41:43.722Z,34.13
2017-11-04T15:44:09.956Z,32.43
2017-11-04T15:46:36.201Z,32.40
2017-11-04T15:49:02.487Z,39.10
2017-11-04T15:51:28.736Z,34.90
2017-11-04T15:53:54.953Z,31.10
2017-11-04T15:56:21.223Z,30.17
2017-11-04T15:58:47.463Z,33.90
2017-11-04T16:01:13.701Z,33.87
2017-11-04T16:03:39.954Z,31.33
2017-11-04T16:06:06.178Z,34.40
2017-11-04T16:08:32.409Z,33.50
2017-11-04T16:10:58.673Z,32.60
2017-11-04T16:13:24.905Z,31.17
2017-11-04T16:15:51.123Z,30.70
2017-11-04T16:18:17.567Z,34.40
2017-11-04T16:20:43.827Z,33.67
2017-11-04T16:23:10.064Z,33.57
2017-11-04T16:25:36.349Z,41.73
2017-11-04T16:28:02.595Z,34.63
2017-11-04T16:30:28.842Z,36.03
2017-11-04T16:32:55.117Z,49.30
2017-11-04T16:35:21.359Z,93.63
2017-11-04T16:37:47.621Z,76.40
2017-11-04T16:40:13.868Z,114.33
2017-11-04T16:42:40.160Z,107.17
2017-11-04T16:45:06.404Z,43.47
2017-11-04T16:47:32.666Z,48.07
2017-11-04T16:49:58.906Z,51.90
2017-11-04T16:52:25.155Z,37.50
2017-11-04T16:54:51.589Z,40.30
2017-11-04T16:57:17.882Z,43.87
2017-11-04T16:59:44.120Z,39.73
2017-11-04T17:02:10.492Z,37.83
2017-11-04T17:04:36.736Z,55.37
2017-11-04T17:07:02.965Z,71.20
2017-11-04T17:09:29.254Z,81.83
2017-11-04T17:11:55.487Z,60.70
2017-11-04T17:14:21.717Z,54.13
2017-11-04T17:16:47.985Z,68.33
2017-11-04T17:19:14.212Z,59.73
2017-11-04T17:21:40.450Z,58.17
2017-11-04T17:24:06.694Z,48.20
2017-11-04T17:26:32.931Z,49.07
2017-11-04T17:28:59.386Z,59.00
2017-11-04T17:31:25.671Z,54.30
2017-11-04T17:33:51.886Z,48.40
2017-11-04T17:36:18.131Z,49.93
2017-11-04T17:38:44.381Z,41.80
2017-11-04T17:41:10.600Z,43.80
2017-11-04T17:43:37.198Z,41.37
2017-11-04T17:46:03.453Z,39.27
2017-11-04T17:48:29.768Z,41.30
2017-11-04T17:50:55.995Z,44.20
2017-11-04T17:53:22.297Z,43.63
2017-11-04T17:55:48.533Z,44.37
2017-11-04T17:58:14.762Z,41.57
2017-11-04T18:00:41.029Z,45.90
2017-11-04T18:03:07.278Z,48.23
2017-11-04T18:05:33.524Z,44.20
2017-11-04T18:07:59.801Z,47.70
2017-11-04T18:10:26.021Z,47.90
2017-11-04T18:12:52.259Z,48.23
2017-11-04T18:15:18.566Z,49.77
2017-11-04T18:17:44.813Z,46.00
2017-11-04T18:20:11.040Z,47.33
2017-11-04T18:22:37.324Z,45.80
2017-11-04T18:25:03.556Z,50.87
2017-11-04T18:27:29.785Z,47.17
2017-11-04T18:29:56.055Z,49.77
2017-11-04T18:32:22.282Z,63.10
2017-11-04T18:34:48.519Z,42.13
2017-11-04T18:37:14.840Z,39.40
2017-11-04T18:39:41.166Z,47.87
2017-11-04T18:42:07.404Z,52.67
2017-11-04T18:44:33.669Z,48.23
2017-11-04T18:46:59.925Z,54.30
2017-11-04T18:49:26.235Z,50.27
2017-11-04T18:51:52.513Z,71.67
2017-11-04T18:54:18.739Z,59.03
2017-11-04T18:56:44.977Z,49.20
2017-11-04T18:59:11.246Z,47.80
2017-11-04T19:01:37.455Z,49.30
2017-11-04T19:04:03.685Z,45.13
2017-11-04T19:06:30.029Z,46.87
2017-11-04T19:08:56.325Z,46.67
2017-11-04T19:11:22.595Z,45.43
2017-11-04T19:13:48.940Z,47.53
2017-11-04T19:16:15.155Z,51.40
2017-11-04T19:18:41.364Z,49.30
2017-11-04T19:21:07.628Z,50.90
2017-11-04T19:23:33.871Z,51.20
2017-11-04T19:26:00.112Z,53.53
2017-11-04T19:28:26.387Z,52.57
2017-11-04T19:30:52.619Z,54.97
2017-11-04T19:33:18.834Z,55.83
2017-11-04T19:35:45.246Z,51.07
2017-11-04T19:38:11.487Z,55.50
2017-11-04T19:40:37.710Z,48.60
2017-11-04T19:43:03.991Z,49.03
2017-11-04T19:45:30.224Z,50.83
2017-11-04T19:47:56.467Z,54.83
2017-11-04T19:50:22.742Z,42.00
2017-11-04T19:52:48.963Z,55.40
2017-11-04T19:55:15.209Z,56.27
2017-11-04T19:57:41.474Z,44.97
2017-11-04T20:00:07.748Z,62.90
2017-11-04T20:02:34.023Z,39.77
2017-11-04T20:05:00.292Z,50.90
2017-11-04T20:07:26.525Z,52.60
2017-11-04T20:09:52.765Z,56.50
2017-11-04T20:12:19.197Z,57.57
2017-11-04T20:14:45.430Z,60.40
2017-11-04T20:17:11.693Z,60.87
2017-11-04T20:19:37.920Z,62.30
2017-11-04T20:22:04.175Z,84.40
2017-11-04T20:24:30.441Z,53.10
2017-11-04T20:26:56.690Z,48.50
2017-11-04T20:29:22.960Z,62.37
2017-11-04T20:31:49.232Z,44.93
2017-11-04T20:34:15.453Z,66.80
2017-11-04T20:36:41.697Z,57.03
2017-11-04T20:39:07.978Z,82.10
2017-11-04T20:41:34.204Z,58.70
2017-11-04T20:44:00.439Z,58.43
2017-11-04T20:46:26.696Z,65.43
2017-11-04T20:48:52.905Z,56.67
2017-11-04T20:51:19.141Z,53.43
2017-11-04T20:53:45.390Z,57.90
2017-11-04T20:56:11.617Z,60.47
2017-11-04T20:58:37.835Z,54.63
2017-11-04T21:01:04.152Z,41.90
2017-11-04T21:03:30.393Z,46.17
2017-11-04T21:05:56.628Z,46.27
2017-11-04T21:08:22.905Z,54.93
2017-11-04T21:10:49.296Z,50.33
2017-11-04T21:13:15.542Z,57.13
2017-11-04T21:15:41.863Z,58.83
2017-11-04T21:18:08.088Z,54.53
2017-11-04T21:20:34.325Z,58.27
2017-11-04T21:23:00.595Z,84.77
2017-11-04T21:25:26.851Z,96.57
2017-11-04T21:27:53.084Z,85.73
2017-11-04T21:30:19.347Z,84.37
2017-11-04T21:32:45.595Z,76.63
2017-11-04T21:35:11.834Z,65.40
2017-11-04T21:37:38.057Z,101.10
2017-11-04T21:40:04.332Z,66.17
2017-11-04T21:42:30.581Z,97.87
2017-11-04T21:44:56.878Z,53.87
2017-11-04T21:47:23.135Z,86.60
2017-11-04T21:49:49.363Z,49.37
2017-11-04T21:52:15.594Z,49.17
2017-11-04T21:54:41.872Z,49.10
2017-11-04T21:57:08.094Z,53.17
2017-11-04T21:59:34.337Z,48.20
2017-11-04T22:02:00.589Z,51.40
2017-11-04T22:04:26.819Z,48.67
2017-11-04T22:06:53.062Z,48.43
2017-11-04T22:09:19.372Z,52.00
2017-11-04T22:11:45.617Z,50.73
2017-11-04T22:14:11.855Z,54.67
2017-11-04T22:16:38.259Z,44.40
2017-11-04T22:19:04.527Z,53.60
2017-11-04T22:24:02.156Z,50.17
2017-11-04T22:26:28.413Z,81.47
2017-11-04T22:28:54.761Z,51.70
2017-11-04T22:31:20.996Z,63.20
2017-11-04T22:33:47.278Z,41.10
2017-11-04T22:36:13.516Z,41.53
2017-11-04T22:38:39.750Z,67.62
2017-11-04T22:41:06.024Z,61.15
2017-11-04T22:43:32.266Z,73.05
2017-11-04T22:45:58.522Z,69.40
2017-11-04T22:48:24.799Z,86.37
2017-11-04T22:50:51.046Z,60.50
2017-11-04T22:53:17.309Z,44.83
2017-11-04T22:55:43.587Z,47.73
2017-11-04T22:58:09.831Z,47.40
2017-11-04T23:00:36.082Z,49.00
2017-11-04T23:03:02.372Z,48.13
2017-11-04T23:05:28.620Z,48.00
2017-11-04T23:07:54.863Z,56.33
2017-11-04T23:10:21.313Z,50.47
2017-11-04T23:12:47.775Z,43.37
2017-11-04T23:15:14.192Z,63.00
2017-11-04T23:17:40.747Z,52.67
2017-11-04T23:20:07.398Z,52.70
2017-11-04T23:22:34.018Z,51.47
2017-11-04T23:25:00.676Z,39.17
2017-11-04T23:27:27.174Z,48.77
2017-11-04T23:29:53.411Z,56.37
2017-11-04T23:32:19.767Z,37.60
2017-11-04T23:34:46.016Z,40.40
2017-11-04T23:37:12.646Z,43.00
2017-11-04T23:39:38.927Z,60.37
2017-11-04T23:42:05.173Z,42.27
2017-11-04T23:44:31.520Z,55.93
2017-11-04T23:46:57.962Z,62.63
2017-11-04T23:49:24.449Z,42.03
2017-11-04T23:51:50.896Z,36.60
2017-11-04T23:54:17.408Z,34.60
2017-11-04T23:56:44.102Z,37.97
2017-11-04T23:59:10.715Z,42.97
